Time,TemperatureF,DewpointF,PressureIn,WindDirection,WindDirectionDegrees,WindSpeedMPH,WindSpeedGustMPH,Humidity,HourlyPrecipIn,Conditions,Clouds,dailyrainin,SolarRadiationWatts/m^2,SoftwareType,DateUTC
2013-03-10 00:06:00,33.4,15.0,30.28,WNW,284,0.0,1.0,48,0.00,,,0.00,0,weatherlink.com 1.10,2013-03-10 05:06:00,
2013-03-10 00:21:00,33.5,16.0,30.29,WNW,284,0.0,1.0,49,0.00,,,0.00,0,weatherlink.com 1.10,2013-03-10 05:21:00,
2013-03-10 00:36:00,33.0,16.0,30.29,WNW,284,0.0,1.0,49,0.00,,,0.00,0,weatherlink.com 1.10,2013-03-10 05:36:00,
2013-03-10 00:51:00,33.5,16.0,30.29,WNW,284,0.0,1.0,49,0.00,,,0.00,0,weatherlink.com 1.10,2013-03-10 05:51:00,
2013-03-10 01:06:00,33.7,16.0,30.29,WNW,284,0.0,2.0,48,0.00,,,0.00,0,weatherlink.com 1.10,2013-03-10 06:06:00,
2013-03-10 01:21:00,32.0,15.0,30.29,WNW,284,0.0,1.0,50,0.00,,,0.00,0,weatherlink.com 1.10,2013-03-10 06:21:00,
2013-03-10 01:36:00,31.5,15.0,30.30,WNW,284,0.0,2.0,51,0.00,,,0.00,0,weatherlink.com 1.10,2013-03-10 06:36:00,
2013-03-10 01:51:00,31.1,15.0,30.29,WNW,284,0.0,2.0,52,0.00,,,0.00,0,weatherlink.com 1.10,2013-03-10 06:51:00,
2013-03-10 03:06:00,29.7,15.0,30.29,WNW,284,0.0,1.0,55,0.00,,,0.00,0,weatherlink.com 1.10,2013-03-10 07:06:00,
2013-03-10 03:21:00,29.6,15.0,30.28,WNW,284,0.0,1.0,55,0.00,,,0.00,0,weatherlink.com 1.10,2013-03-10 07:21:00,
2013-03-10 03:36:00,28.2,16.0,30.28,WNW,284,0.0,1.0,60,0.00,,,0.00,0,weatherlink.com 1.10,2013-03-10 07:36:00,
2013-03-10 03:51:00,28.1,16.0,30.28,WNW,284,0.0,1.0,61,0.00,,,0.00,0,weatherlink.com 1.10,2013-03-10 07:51:00,
2013-03-10 04:06:00,27.9,16.0,30.28,WNW,284,0.0,0.0,62,0.00,,,0.00,0,weatherlink.com 1.10,2013-03-10 08:06:00,
2013-03-10 04:21:00,29.5,17.0,30.28,WNW,284,0.0,1.0,60,0.00,,,0.00,0,weatherlink.com 1.10,2013-03-10 08:21:00,
2013-03-10 04:36:00,28.3,17.0,30.28,WNW,284,0.0,1.0,62,0.00,,,0.00,0,weatherlink.com 1.10,2013-03-10 08:36:00,
2013-03-10 04:51:00,28.1,17.0,30.28,WNW,284,0.0,1.0,64,0.00,,,0.00,0,weatherlink.com 1.10,2013-03-10 08:51:00,
2013-03-10 05:06:00,26.9,17.0,30.28,WNW,284,0.0,0.0,65,0.00,,,0.00,0,weatherlink.com 1.10,2013-03-10 09:06:00,
2013-03-10 05:21:00,26.2,17.0,30.28,WNW,284,0.0,0.0,69,0.00,,,0.00,0,weatherlink.com 1.10,2013-03-10 09:21:00,
2013-03-10 05:36:00,25.8,17.0,30.29,WNW,284,0.0,1.0,70,0.00,,,0.00,0,weatherlink.com 1.10,2013-03-10 09:36:00,
2013-03-10 05:51:00,25.4,18.0,30.29,WNW,284,0.0,0.0,72,0.00,,,0.00,0,weatherlink.com 1.10,2013-03-10 09:51:00,
2013-03-10 06:06:00,25.7,18.0,30.29,WNW,284,0.0,1.0,72,0.00,,,0.00,0,weatherlink.com 1.10,2013-03-10 10:06:00,
2013-03-10 06:21:00,25.7,18.0,30.30,WNW,284,0.0,0.0,72,0.00,,,0.00,0,weatherlink.com 1.10,2013-03-10 10:21:00,
2013-03-10 06:36:00,24.9,17.0,30.30,WNW,284,0.0,2.0,72,0.00,,,0.00,0,weatherlink.com 1.10,2013-03-10 10:36:00,
2013-03-10 06:51:00,25.0,17.0,30.30,WNW,284,0.0,1.0,72,0.00,,,0.00,0,weatherlink.com 1.10,2013-03-10 10:51:00,
2013-03-10 07:06:00,24.8,18.0,30.30,WNW,284,0.0,0.0,74,0.00,,,0.00,0,weatherlink.com 1.10,2013-03-10 11:06:00,
2013-03-10 07:21:00,25.0,18.0,30.30,WNW,284,0.0,0.0,74,0.00,,,0.00,7,weatherlink.com 1.10,2013-03-10 11:21:00,
2013-03-10 07:36:00,25.6,18.0,30.30,WNW,284,0.0,0.0,73,0.00,,,0.00,19,weatherlink.com 1.10,2013-03-10 11:36:00,
2013-03-10 07:51:00,26.6,18.0,30.31,WNW,284,0.0,0.0,71,0.00,,,0.00,26,weatherlink.com 1.10,2013-03-10 11:51:00,
2013-03-10 08:06:00,27.0,19.0,30.31,WNW,284,0.0,0.0,71,0.00,,,0.00,107,weatherlink.com 1.10,2013-03-10 12:06:00,
2013-03-10 08:22:00,30.7,20.0,30.31,WNW,283,0.0,1.0,65,0.00,,,0.00,174,weatherlink.com 1.10,2013-03-10 12:22:00,
2013-03-10 08:37:00,31.9,20.0,30.31,SSE,150,2.0,6.0,61,0.00,,,0.00,236,weatherlink.com 1.10,2013-03-10 12:37:00,
2013-03-10 08:52:00,31.5,20.0,30.31,SSE,157,5.0,7.0,62,0.00,,,0.00,313,weatherlink.com 1.10,2013-03-10 12:52:00,
2013-03-10 09:07:00,31.8,20.0,30.31,SSE,148,2.0,9.0,62,0.00,,,0.00,360,weatherlink.com 1.10,2013-03-10 13:07:00,
2013-03-10 09:22:00,32.7,20.0,30.31,SSE,157,4.0,9.0,61,0.00,,,0.00,392,weatherlink.com 1.10,2013-03-10 13:22:00,
2013-03-10 09:37:00,32.5,21.0,30.32,SSE,162,5.0,11.0,62,0.00,,,0.00,441,weatherlink.com 1.10,2013-03-10 13:37:00,
2013-03-10 09:53:00,33.5,21.0,30.31,SSE,148,5.0,14.0,61,0.00,,,0.00,482,weatherlink.com 1.10,2013-03-10 13:53:00,
2013-03-10 10:08:00,33.8,21.0,30.31,SSW,200,10.0,11.0,60,0.00,,,0.00,524,weatherlink.com 1.10,2013-03-10 14:08:00,
2013-03-10 10:23:00,34.4,21.0,30.31,SSE,154,6.0,14.0,59,0.00,,,0.00,575,weatherlink.com 1.10,2013-03-10 14:23:00,
2013-03-10 10:38:00,35.2,22.0,30.30,SSE,149,7.0,11.0,58,0.00,,,0.00,587,weatherlink.com 1.10,2013-03-10 14:38:00,
2013-03-10 10:53:00,36.1,22.0,30.30,SSE,162,5.0,12.0,58,0.00,,,0.00,631,weatherlink.com 1.10,2013-03-10 14:53:00,
2013-03-10 11:08:00,37.4,22.0,30.30,South,181,5.0,12.0,54,0.00,,,0.00,661,weatherlink.com 1.10,2013-03-10 15:08:00,
2013-03-10 11:24:00,38.2,22.0,30.29,SE,142,8.0,12.0,53,0.00,,,0.00,693,weatherlink.com 1.10,2013-03-10 15:24:00,
2013-03-10 11:39:00,39.4,22.0,30.29,South,169,3.0,14.0,49,0.00,,,0.00,714,weatherlink.com 1.10,2013-03-10 15:39:00,
2013-03-10 11:54:00,39.8,22.0,30.28,SE,139,8.0,13.0,50,0.00,,,0.00,737,weatherlink.com 1.10,2013-03-10 15:54:00,
2013-03-10 12:09:00,40.5,22.0,30.29,SE,136,6.0,13.0,48,0.00,,,0.00,742,weatherlink.com 1.10,2013-03-10 16:09:00,
2013-03-10 12:24:00,41.0,22.0,30.29,SSE,165,0.0,13.0,47,0.00,,,0.00,761,weatherlink.com 1.10,2013-03-10 16:24:00,
2013-03-10 12:42:00,42.2,22.0,30.28,South,182,4.0,12.0,44,0.00,,,0.00,773,weatherlink.com 1.10,2013-03-10 16:42:00,
2013-03-10 12:55:00,42.9,22.0,30.27,South,183,9.0,16.0,44,0.00,,,0.00,775,weatherlink.com 1.10,2013-03-10 16:55:00,
2013-03-10 13:11:00,43.3,22.0,30.27,SSE,148,11.0,16.0,43,0.00,,,0.00,802,weatherlink.com 1.10,2013-03-10 17:11:00,
2013-03-10 13:25:00,44.0,22.0,30.27,South,182,10.0,16.0,42,0.00,,,0.00,803,weatherlink.com 1.10,2013-03-10 17:25:00,
2013-03-10 13:42:00,44.3,22.0,30.26,SE,142,8.0,16.0,42,0.00,,,0.00,807,weatherlink.com 1.10,2013-03-10 17:42:00,
2013-03-10 13:55:00,44.5,21.0,30.25,SSW,194,9.0,13.0,40,0.00,,,0.00,796,weatherlink.com 1.10,2013-03-10 17:55:00,
2013-03-10 14:11:00,45.2,23.0,30.25,SSE,161,6.0,10.0,41,0.00,,,0.00,791,weatherlink.com 1.10,2013-03-10 18:11:00,
2013-03-10 14:26:00,45.5,22.0,30.25,South,188,7.0,21.0,40,0.00,,,0.00,784,weatherlink.com 1.10,2013-03-10 18:26:00,
2013-03-10 14:41:00,45.8,23.0,30.24,SE,137,10.0,15.0,41,0.00,,,0.00,693,weatherlink.com 1.10,2013-03-10 18:41:00,
2013-03-10 14:56:00,46.1,23.0,30.24,SE,143,10.0,15.0,41,0.00,,,0.00,731,weatherlink.com 1.10,2013-03-10 18:56:00,
2013-03-10 15:11:00,46.1,24.0,30.24,SE,138,8.0,13.0,42,0.00,,,0.00,693,weatherlink.com 1.10,2013-03-10 19:11:00,
2013-03-10 15:27:00,45.6,24.0,30.24,South,180,8.0,15.0,42,0.00,,,0.00,338,weatherlink.com 1.10,2013-03-10 19:27:00,
2013-03-10 15:43:00,47.0,24.0,30.23,South,175,3.0,13.0,41,0.00,,,0.00,541,weatherlink.com 1.10,2013-03-10 19:43:00,
2013-03-10 15:57:00,46.8,25.0,30.23,SSE,159,5.0,14.0,42,0.00,,,0.00,547,weatherlink.com 1.10,2013-03-10 19:57:00,
2013-03-10 16:13:00,46.3,24.0,30.23,SSE,152,5.0,11.0,42,0.00,,,0.00,116,weatherlink.com 1.10,2013-03-10 20:13:00,
2013-03-10 16:27:00,46.6,24.0,30.22,South,173,13.0,13.0,42,0.00,,,0.00,155,weatherlink.com 1.10,2013-03-10 20:27:00,
2013-03-10 16:42:00,46.7,24.0,30.22,SSW,194,11.0,16.0,41,0.00,,,0.00,158,weatherlink.com 1.10,2013-03-10 20:42:00,
2013-03-10 16:59:00,46.0,24.0,30.22,SSE,167,7.0,14.0,43,0.00,,,0.00,104,weatherlink.com 1.10,2013-03-10 20:59:00,
2013-03-10 17:13:00,45.0,25.0,30.21,South,180,10.0,13.0,46,0.00,,,0.00,74,weatherlink.com 1.10,2013-03-10 21:13:00,
2013-03-10 17:28:00,43.7,25.0,30.20,SSE,168,6.0,16.0,49,0.00,,,0.00,90,weatherlink.com 1.10,2013-03-10 21:28:00,
2013-03-10 17:44:00,43.0,25.0,30.21,SSE,150,4.0,12.0,50,0.00,,,0.00,62,weatherlink.com 1.10,2013-03-10 21:44:00,
2013-03-10 17:58:00,42.4,25.0,30.21,SSW,204,5.0,14.0,51,0.00,,,0.00,37,weatherlink.com 1.10,2013-03-10 21:58:00,
2013-03-10 18:13:00,41.7,26.0,30.22,South,184,0.0,7.0,54,0.00,,,0.00,12,weatherlink.com 1.10,2013-03-10 22:13:00,
2013-03-10 18:28:00,41.0,26.0,30.22,South,185,3.0,9.0,55,0.00,,,0.00,0,weatherlink.com 1.10,2013-03-10 22:28:00,
2013-03-10 18:43:00,40.4,26.0,30.22,SSE,167,3.0,9.0,57,0.00,,,0.00,0,weatherlink.com 1.10,2013-03-10 22:43:00,
2013-03-10 18:59:00,39.9,26.0,30.22,SSE,153,4.0,12.0,57,0.00,,,0.00,0,weatherlink.com 1.10,2013-03-10 22:59:00,
2013-03-10 19:14:00,39.4,26.0,30.23,SSW,198,5.0,7.0,59,0.00,,,0.00,0,weatherlink.com 1.10,2013-03-10 23:14:00,
2013-03-10 19:29:00,39.1,26.0,30.23,SSE,161,6.0,9.0,60,0.00,,,0.00,0,weatherlink.com 1.10,2013-03-10 23:29:00,
2013-03-10 19:45:00,38.7,26.0,30.23,SSE,154,1.0,5.0,61,0.00,,,0.00,0,weatherlink.com 1.10,2013-03-10 23:45:00,
2013-03-10 19:59:00,38.6,26.0,30.22,SSW,192,1.0,7.0,62,0.00,,,0.00,0,weatherlink.com 1.10,2013-03-10 23:59:00,
2013-03-10 20:14:00,38.4,27.0,30.21,South,170,2.0,8.0,63,0.00,,,0.00,0,weatherlink.com 1.10,2013-03-11 00:14:00,
2013-03-10 20:29:00,38.3,27.0,30.21,South,178,3.0,10.0,64,0.00,,,0.00,0,weatherlink.com 1.10,2013-03-11 00:29:00,
2013-03-10 20:44:00,38.0,27.0,30.21,South,185,7.0,10.0,65,0.00,,,0.00,0,weatherlink.com 1.10,2013-03-11 00:44:00,
2013-03-10 20:59:00,37.8,27.0,30.21,SSE,150,7.0,9.0,66,0.00,,,0.00,0,weatherlink.com 1.10,2013-03-11 00:59:00,
2013-03-10 21:14:00,37.6,27.0,30.21,SSW,198,0.0,7.0,67,0.00,,,0.00,0,weatherlink.com 1.10,2013-03-11 01:14:00,
2013-03-10 21:30:00,37.4,27.0,30.21,SE,136,4.0,6.0,67,0.00,,,0.00,0,weatherlink.com 1.10,2013-03-11 01:30:00,
2013-03-10 21:45:00,37.2,28.0,30.22,SSW,194,8.0,10.0,69,0.00,,,0.00,0,weatherlink.com 1.10,2013-03-11 01:45:00,
2013-03-10 22:00:00,37.1,27.0,30.21,SE,136,3.0,9.0,68,0.00,,,0.00,0,weatherlink.com 1.10,2013-03-11 02:00:00,
2013-03-10 22:15:00,37.0,28.0,30.21,South,189,4.0,9.0,69,0.00,,,0.00,0,weatherlink.com 1.10,2013-03-11 02:15:00,
2013-03-10 22:30:00,36.8,28.0,30.20,South,189,4.0,11.0,70,0.00,,,0.00,0,weatherlink.com 1.10,2013-03-11 02:30:00,
2013-03-10 22:45:00,36.5,28.0,30.20,SSE,150,8.0,9.0,71,0.00,,,0.00,0,weatherlink.com 1.10,2013-03-11 02:45:00,
2013-03-10 23:00:00,36.4,28.0,30.20,SSE,150,7.0,18.0,71,0.00,,,0.00,0,weatherlink.com 1.10,2013-03-11 03:00:00,
2013-03-10 23:15:00,36.2,28.0,30.20,South,170,9.0,12.0,72,0.00,,,0.00,0,weatherlink.com 1.10,2013-03-11 03:15:00,
2013-03-10 23:30:00,36.1,28.0,30.19,SSE,162,0.0,13.0,72,0.00,,,0.00,0,weatherlink.com 1.10,2013-03-11 03:30:00,
2013-03-10 23:45:00,35.9,28.0,30.19,SE,134,0.0,14.0,72,0.00,,,0.00,0,weatherlink.com 1.10,2013-03-11 03:45:00,